createdAt,value
2019-04-14T00:01:20.165Z,54.63
2019-04-14T00:03:56.482Z,57.77
2019-04-14T00:06:24.671Z,47.40
2019-04-14T00:08:52.646Z,46.80
2019-04-14T00:11:21.294Z,42.50
2019-04-14T00:13:50.136Z,41.47
2019-04-14T00:16:18.429Z,38.30
2019-04-14T00:18:47.021Z,32.97
2019-04-14T00:21:15.432Z,33.57
2019-04-14T00:23:43.512Z,33.20
2019-04-14T00:26:25.240Z,25.63
2019-04-14T00:28:53.549Z,28.97
2019-04-14T00:31:21.785Z,26.50
2019-04-14T00:33:52.005Z,24.43
2019-04-14T00:36:48.180Z,26.87
2019-04-14T00:39:37.840Z,24.97
2019-04-14T00:42:23.875Z,28.13
2019-04-14T00:44:55.914Z,25.30
2019-04-14T00:47:27.466Z,28.23
2019-04-14T00:49:55.371Z,27.07
2019-04-14T00:52:24.002Z,30.90
2019-04-14T00:54:52.437Z,27.33
2019-04-14T00:57:23.250Z,26.03
2019-04-14T00:59:51.651Z,27.23
2019-04-14T01:02:23.116Z,27.43
2019-04-14T01:04:51.492Z,27.33
2019-04-14T01:07:20.157Z,27.50
2019-04-14T01:09:48.908Z,29.03
2019-04-14T01:12:17.514Z,27.60
2019-04-14T01:14:45.762Z,28.87
2019-04-14T01:17:15.449Z,27.60
2019-04-14T01:19:44.178Z,28.33
2019-04-14T01:22:14.387Z,25.67
2019-04-14T01:24:42.576Z,26.23
2019-04-14T01:27:12.384Z,28.23
2019-04-14T01:29:40.996Z,26.83
2019-04-14T01:32:09.614Z,27.67
2019-04-14T01:34:39.136Z,23.77
2019-04-14T01:37:07.350Z,24.97
2019-04-14T01:39:37.181Z,25.13
2019-04-14T01:42:05.146Z,23.20
2019-04-14T01:44:33.115Z,24.87
2019-04-14T01:47:01.652Z,25.50
2019-04-14T01:49:31.074Z,25.07
2019-04-14T01:52:08.297Z,24.17
2019-04-14T01:55:00.835Z,23.87
2019-04-14T01:57:41.459Z,33.53
2019-04-14T02:00:42.373Z,97.10
2019-04-14T02:03:12.754Z,42.83
2019-04-14T02:05:40.777Z,53.70
2019-04-14T02:08:09.430Z,65.00
2019-04-14T02:10:39.108Z,54.60
2019-04-14T02:13:07.273Z,78.10
2019-04-14T02:15:37.316Z,68.90
2019-04-14T02:18:05.589Z,92.23
2019-04-14T02:20:33.997Z,43.20
2019-04-14T02:23:02.293Z,63.97
2019-04-14T02:25:31.761Z,82.23
2019-04-14T02:28:00.399Z,91.70
2019-04-14T02:30:36.213Z,55.80
2019-04-14T02:33:33.802Z,75.57
2019-04-14T02:38:33.946Z,56.63
2019-04-14T02:43:29.669Z,54.60
2019-04-14T02:45:57.761Z,124.93
2019-04-14T02:48:41.976Z,122.80
2019-04-14T02:50:59.586Z,118.73
2019-04-14T02:53:37.045Z,136.17
2019-04-14T02:56:12.003Z,87.70
2019-04-14T03:01:08.193Z,69.40
2019-04-14T03:03:33.560Z,74.93
2019-04-14T03:06:14.752Z,127.10
2019-04-14T03:08:31.370Z,115.83
2019-04-14T03:11:01.320Z,76.17
2019-04-14T03:13:35.672Z,146.03
2019-04-14T03:16:02.250Z,77.00
2019-04-14T03:18:52.501Z,76.50
2019-04-14T03:21:40.457Z,98.13
2019-04-14T03:24:32.798Z,74.50
2019-04-14T03:27:36.005Z,66.30
2019-04-14T03:33:05.310Z,110.30
2019-04-14T03:35:47.286Z,107.67
2019-04-14T03:40:13.878Z,154.40
2019-04-14T03:42:48.536Z,164.03
2019-04-14T03:45:23.189Z,121.90
2019-04-14T03:47:56.259Z,77.53
2019-04-14T03:50:16.128Z,164.50
2019-04-14T03:55:01.515Z,134.27
2019-04-14T03:57:17.173Z,147.17
2019-04-14T03:59:45.698Z,128.53
2019-04-14T04:02:14.002Z,99.80
2019-04-14T04:04:42.350Z,91.07
2019-04-14T04:07:10.681Z,104.17
2019-04-14T04:09:43.956Z,90.37
2019-04-14T04:12:13.825Z,81.50
2019-04-14T04:14:42.527Z,86.43
2019-04-14T04:17:43.022Z,79.50
2019-04-14T04:20:34.971Z,80.53
2019-04-14T04:23:14.168Z,93.57
2019-04-14T04:25:50.804Z,101.33
2019-04-14T04:28:45.109Z,90.33
2019-04-14T04:31:28.505Z,128.57
2019-04-14T04:34:14.104Z,100.07
2019-04-14T04:37:01.820Z,216.87
2019-04-14T04:39:35.259Z,195.60
2019-04-14T04:42:04.719Z,168.97
2019-04-14T04:44:33.475Z,189.07
2019-04-14T04:47:01.438Z,260.97
2019-04-14T04:49:31.296Z,184.70
2019-04-14T04:51:59.902Z,222.43
2019-04-14T04:54:30.132Z,121.60
2019-04-14T04:56:58.746Z,141.33
2019-04-14T04:59:27.772Z,110.07
2019-04-14T05:01:56.142Z,109.13
2019-04-14T05:04:24.459Z,109.43
2019-04-14T05:06:57.151Z,100.43
2019-04-14T05:09:44.814Z,96.77
2019-04-14T05:12:21.719Z,79.53
2019-04-14T05:14:56.680Z,113.93
2019-04-14T05:17:25.570Z,87.87
2019-04-14T05:19:54.220Z,88.10
2019-04-14T05:22:22.423Z,90.93
2019-04-14T05:24:50.864Z,83.83
2019-04-14T05:27:19.363Z,74.00
2019-04-14T05:29:49.307Z,81.23
2019-04-14T05:32:17.444Z,82.30
2019-04-14T05:34:45.991Z,70.47
2019-04-14T05:37:14.558Z,91.20
2019-04-14T05:39:44.034Z,74.60
2019-04-14T05:42:18.937Z,84.50
2019-04-14T05:44:43.192Z,75.10
2019-04-14T05:47:11.573Z,77.03
2019-04-14T05:49:45.525Z,76.23
2019-04-14T05:52:10.091Z,78.50
2019-04-14T05:54:38.720Z,82.60
2019-04-14T05:57:06.640Z,81.07
2019-04-14T05:59:35.310Z,80.83
2019-04-14T06:02:04.740Z,72.97
2019-04-14T06:04:33.204Z,77.80
2019-04-14T06:07:01.512Z,72.00
2019-04-14T06:09:31.243Z,67.53
2019-04-14T06:11:59.824Z,79.90
2019-04-14T06:14:28.099Z,74.97
2019-04-14T06:16:57.651Z,73.13
2019-04-14T06:19:36.516Z,72.47
2019-04-14T06:21:55.498Z,63.37
2019-04-14T06:24:23.688Z,70.50
2019-04-14T06:26:52.238Z,69.03
2019-04-14T06:29:20.757Z,78.40
2019-04-14T06:32:18.092Z,76.50
2019-04-14T06:35:05.638Z,76.53
2019-04-14T06:37:37.493Z,78.93
2019-04-14T06:40:06.374Z,70.83
2019-04-14T06:42:35.059Z,83.07
2019-04-14T06:45:03.243Z,74.10
2019-04-14T06:47:31.995Z,67.60
2019-04-14T06:50:00.083Z,74.80
2019-04-14T06:52:28.662Z,75.30
2019-04-14T06:54:57.503Z,65.53
2019-04-14T06:57:25.490Z,68.37
2019-04-14T06:59:55.538Z,60.43
2019-04-14T07:02:23.429Z,60.23
2019-04-14T07:04:51.449Z,58.87
2019-04-14T07:07:20.293Z,69.13
2019-04-14T07:09:48.544Z,58.43
2019-04-14T07:12:16.972Z,62.17
2019-04-14T07:14:45.402Z,63.97
2019-04-14T07:17:13.247Z,68.37
2019-04-14T07:19:42.027Z,64.10
2019-04-14T07:22:09.542Z,65.40
2019-04-14T07:24:37.192Z,63.47
2019-04-14T07:27:05.493Z,68.63
2019-04-14T07:29:41.343Z,75.13
2019-04-14T07:32:29.354Z,80.67
2019-04-14T07:35:09.818Z,71.60
2019-04-14T07:37:57.322Z,95.80
2019-04-14T07:40:45.174Z,78.37
2019-04-14T07:43:21.450Z,91.17
2019-04-14T07:46:04.450Z,94.30
2019-04-14T07:48:40.893Z,91.77
2019-04-14T07:51:20.814Z,112.87
2019-04-14T07:53:58.366Z,88.17
2019-04-14T07:56:39.405Z,90.23
2019-04-14T07:59:32.597Z,93.57
2019-04-14T08:02:13.215Z,90.80
2019-04-14T08:05:09.510Z,88.60
2019-04-14T08:07:37.362Z,100.10
2019-04-14T08:10:08.917Z,95.27
2019-04-14T08:12:37.833Z,94.03
2019-04-14T08:15:07.650Z,88.63
2019-04-14T08:17:37.223Z,101.17
2019-04-14T08:20:06.580Z,96.90
2019-04-14T08:22:35.233Z,103.73
2019-04-14T08:25:05.052Z,91.73
2019-04-14T08:27:33.865Z,90.93
2019-04-14T08:30:02.848Z,94.23
2019-04-14T08:32:31.174Z,107.57
2019-04-14T08:34:59.129Z,104.47
2019-04-14T08:37:27.493Z,98.97
2019-04-14T08:39:56.095Z,100.83
2019-04-14T08:43:01.699Z,101.40
2019-04-14T08:45:47.905Z,104.30
2019-04-14T08:48:35.410Z,107.17
2019-04-14T08:51:07.953Z,102.33
2019-04-14T08:53:43.628Z,107.87
2019-04-14T08:56:37.302Z,103.50
2019-04-14T08:59:30.648Z,112.27
2019-04-14T09:02:20.944Z,109.93
2019-04-14T09:05:14.274Z,109.30
2019-04-14T09:07:48.903Z,110.17
2019-04-14T09:10:20.592Z,104.57
2019-04-14T09:12:50.259Z,124.87
2019-04-14T09:15:18.579Z,107.53
2019-04-14T09:17:48.127Z,105.07
2019-04-14T09:20:16.387Z,113.40
2019-04-14T09:22:44.564Z,119.90
2019-04-14T09:25:12.526Z,104.93
2019-04-14T09:27:40.397Z,108.70
2019-04-14T09:30:09.391Z,105.40
2019-04-14T09:32:37.266Z,108.83
2019-04-14T09:35:05.955Z,111.50
2019-04-14T09:37:33.905Z,119.83
2019-04-14T09:40:01.889Z,107.07
2019-04-14T09:42:29.749Z,106.77
2019-04-14T09:44:58.303Z,106.40
2019-04-14T09:47:26.893Z,104.07
2019-04-14T09:49:54.891Z,97.30
2019-04-14T09:52:23.212Z,108.27
2019-04-14T09:54:51.510Z,106.50
2019-04-14T09:57:20.144Z,101.60
2019-04-14T09:59:50.131Z,100.20
2019-04-14T10:02:18.762Z,108.60
2019-04-14T10:04:47.121Z,105.20
2019-04-14T10:07:15.056Z,104.07
2019-04-14T10:09:43.329Z,106.43
2019-04-14T10:12:11.414Z,101.53
2019-04-14T10:14:40.073Z,103.43
2019-04-14T10:17:08.373Z,122.47
2019-04-14T10:19:36.778Z,110.30
2019-04-14T10:22:05.430Z,105.57
2019-04-14T10:24:33.693Z,105.43
2019-04-14T10:27:02.078Z,111.63
2019-04-14T10:29:31.956Z,103.27
2019-04-14T10:31:59.990Z,92.93
2019-04-14T10:34:28.716Z,93.07
2019-04-14T10:36:57.234Z,89.87
2019-04-14T10:39:25.871Z,87.30
2019-04-14T10:41:55.114Z,91.20
2019-04-14T10:44:23.696Z,85.47
2019-04-14T10:46:53.288Z,89.80
2019-04-14T10:49:21.940Z,96.93
2019-04-14T10:51:49.871Z,99.63
2019-04-14T10:54:18.139Z,92.07
2019-04-14T10:56:46.374Z,79.37
2019-04-14T10:59:14.703Z,76.93
2019-04-14T11:01:42.712Z,88.50
2019-04-14T11:04:10.769Z,84.90
2019-04-14T11:07:04.588Z,87.57
2019-04-14T11:09:32.475Z,88.23
2019-04-14T11:12:01.099Z,87.63
2019-04-14T11:14:29.346Z,82.90
2019-04-14T11:16:57.709Z,89.87
2019-04-14T11:19:26.366Z,91.33
2019-04-14T11:21:55.126Z,93.80
2019-04-14T11:24:24.170Z,91.60
2019-04-14T11:26:52.577Z,94.57
2019-04-14T11:29:21.246Z,87.43
2019-04-14T11:32:14.788Z,87.40
2019-04-14T11:34:48.088Z,88.73
2019-04-14T11:37:31.433Z,84.53
2019-04-14T11:39:59.390Z,82.70
2019-04-14T11:42:27.079Z,81.63
2019-04-14T11:44:54.985Z,78.63
2019-04-14T11:47:23.306Z,77.97
2019-04-14T11:49:51.672Z,80.67
2019-04-14T11:52:20.309Z,83.20
2019-04-14T11:54:48.454Z,78.73
2019-04-14T11:57:16.679Z,72.53
2019-04-14T11:59:55.580Z,82.60
2019-04-14T12:02:34.567Z,70.67
2019-04-14T12:05:13.496Z,75.63
2019-04-14T12:07:47.886Z,73.37
2019-04-14T12:10:21.245Z,82.50
2019-04-14T12:12:52.823Z,72.47
2019-04-14T12:15:22.095Z,76.03
2019-04-14T12:17:50.081Z,79.80
2019-04-14T12:20:18.714Z,67.57
2019-04-14T12:22:46.712Z,78.60
2019-04-14T12:25:14.644Z,72.27
2019-04-14T12:27:44.528Z,76.20
2019-04-14T12:30:13.684Z,75.23
2019-04-14T12:32:42.527Z,67.87
2019-04-14T12:35:11.929Z,74.73
2019-04-14T12:37:39.590Z,77.07
2019-04-14T12:40:08.714Z,73.60
2019-04-14T12:42:48.957Z,76.77
2019-04-14T12:45:35.046Z,79.30
2019-04-14T12:48:18.069Z,76.83
2019-04-14T12:50:55.403Z,74.97
2019-04-14T12:53:24.904Z,76.40
2019-04-14T12:55:53.812Z,73.53
2019-04-14T12:58:30.415Z,78.63
2019-04-14T13:01:02.493Z,72.67
2019-04-14T13:03:32.917Z,77.63
2019-04-14T13:06:01.153Z,75.33
2019-04-14T13:08:30.804Z,77.33
2019-04-14T13:10:59.197Z,71.83
2019-04-14T13:13:27.505Z,72.77
2019-04-14T13:15:56.084Z,80.43
2019-04-14T13:18:25.510Z,72.83
2019-04-14T13:20:53.866Z,73.23
2019-04-14T13:23:22.619Z,74.93
2019-04-14T13:25:51.350Z,74.77
2019-04-14T13:28:19.640Z,76.67
2019-04-14T13:30:49.621Z,70.00
2019-04-14T13:33:17.198Z,70.93
2019-04-14T13:35:45.601Z,70.47
2019-04-14T13:38:14.228Z,68.10
2019-04-14T13:40:42.573Z,68.30
2019-04-14T13:43:11.580Z,68.63
2019-04-14T13:45:39.851Z,72.73
2019-04-14T13:48:10.236Z,76.83
2019-04-14T13:50:38.645Z,74.73
2019-04-14T13:53:06.849Z,70.90
2019-04-14T13:55:36.148Z,72.30
2019-04-14T13:58:04.439Z,69.77
2019-04-14T14:00:32.204Z,71.83
2019-04-14T14:03:01.034Z,64.83
2019-04-14T14:05:29.325Z,71.23
2019-04-14T14:07:58.643Z,70.07
2019-04-14T14:10:27.587Z,70.10
2019-04-14T14:13:05.551Z,71.20
2019-04-14T14:15:51.693Z,66.00
2019-04-14T14:18:54.548Z,57.77
2019-04-14T14:21:41.769Z,59.13
2019-04-14T14:24:43.795Z,62.37
2019-04-14T14:27:12.500Z,63.47
2019-04-14T14:29:40.865Z,55.77
2019-04-14T14:32:16.841Z,61.73
2019-04-14T14:34:45.354Z,63.10
2019-04-14T14:37:13.621Z,60.47
2019-04-14T14:39:41.961Z,60.80
2019-04-14T14:42:10.540Z,58.63
2019-04-14T14:44:43.603Z,61.17
2019-04-14T14:47:15.646Z,62.07
2019-04-14T14:50:02.458Z,56.70
2019-04-14T14:52:31.276Z,54.80
2019-04-14T14:55:00.958Z,53.47
2019-04-14T14:57:28.851Z,49.83
2019-04-14T14:59:57.535Z,50.80
2019-04-14T15:02:25.879Z,49.73
2019-04-14T15:04:54.524Z,49.63
2019-04-14T15:07:22.785Z,47.30
2019-04-14T15:09:50.710Z,44.13
2019-04-14T15:12:19.000Z,48.83
2019-04-14T15:14:47.213Z,45.43
2019-04-14T15:17:15.399Z,47.40
2019-04-14T15:19:43.678Z,47.40
2019-04-14T15:22:12.455Z,44.93
2019-04-14T15:24:40.058Z,46.73
2019-04-14T15:27:09.375Z,46.47
2019-04-14T15:29:37.629Z,46.70
2019-04-14T15:32:05.089Z,50.43
2019-04-14T15:34:33.566Z,51.03
2019-04-14T15:37:02.051Z,45.73
2019-04-14T15:39:30.227Z,50.23
2019-04-14T15:41:58.626Z,44.43
2019-04-14T15:44:27.005Z,56.90
2019-04-14T15:46:55.242Z,55.63
2019-04-14T15:49:25.865Z,60.73
2019-04-14T15:51:54.660Z,59.50
2019-04-14T15:54:25.455Z,53.97
2019-04-14T15:57:04.974Z,55.60
2019-04-14T15:59:58.171Z,46.30
2019-04-14T16:02:31.359Z,54.97
2019-04-14T16:05:06.471Z,48.20
2019-04-14T16:07:57.221Z,43.60
2019-04-14T16:10:35.684Z,47.63
2019-04-14T16:13:28.648Z,47.23
2019-04-14T16:16:25.680Z,43.17
2019-04-14T16:18:58.060Z,41.97
2019-04-14T16:21:26.626Z,49.23
2019-04-14T16:23:54.626Z,45.57
2019-04-14T16:26:27.906Z,57.43
2019-04-14T16:29:15.435Z,60.07
2019-04-14T16:32:03.771Z,54.47
2019-04-14T16:34:45.068Z,43.40
2019-04-14T16:37:13.371Z,52.87
2019-04-14T16:39:42.175Z,43.23
2019-04-14T16:42:10.973Z,51.23
2019-04-14T16:44:39.557Z,46.13
2019-04-14T16:47:07.990Z,41.57
2019-04-14T16:49:36.565Z,45.93
2019-04-14T16:52:22.368Z,50.37
2019-04-14T16:54:58.375Z,50.57
2019-04-14T16:57:43.971Z,48.23
2019-04-14T17:00:15.252Z,44.20
2019-04-14T17:02:45.101Z,42.00
2019-04-14T17:05:13.662Z,48.50
2019-04-14T17:07:42.595Z,43.47
2019-04-14T17:10:11.389Z,44.53
2019-04-14T17:12:40.106Z,47.60
2019-04-14T17:15:32.146Z,50.47
2019-04-14T17:18:25.007Z,45.90
2019-04-14T17:21:12.823Z,52.80
2019-04-14T17:23:54.806Z,44.80
2019-04-14T17:26:45.289Z,46.50
2019-04-14T17:29:45.411Z,45.23
2019-04-14T17:32:29.684Z,38.47
2019-04-14T17:35:32.963Z,43.67
2019-04-14T17:38:09.771Z,43.90
2019-04-14T17:41:01.851Z,49.30
2019-04-14T17:43:34.430Z,41.37
2019-04-14T17:46:21.339Z,41.70
2019-04-14T17:49:07.325Z,47.43
2019-04-14T17:51:40.198Z,46.97
2019-04-14T17:54:29.258Z,42.73
2019-04-14T17:57:15.665Z,46.23
2019-04-14T17:59:59.294Z,41.63
2019-04-14T18:02:41.649Z,46.00
2019-04-14T18:05:13.772Z,44.83
2019-04-14T18:07:47.733Z,43.43
2019-04-14T18:10:25.919Z,45.93
2019-04-14T18:13:06.969Z,39.53
2019-04-14T18:15:44.141Z,46.07
2019-04-14T18:18:18.995Z,46.90
2019-04-14T18:20:49.933Z,40.20
2019-04-14T18:23:18.614Z,41.77
2019-04-14T18:25:48.436Z,43.73
2019-04-14T18:28:43.326Z,44.80
2019-04-14T18:31:28.075Z,44.60
2019-04-14T18:34:20.029Z,45.27
2019-04-14T18:37:10.384Z,48.30
2019-04-14T18:40:04.865Z,54.30
2019-04-14T18:42:39.479Z,59.53
2019-04-14T18:45:23.550Z,55.50
2019-04-14T18:47:59.687Z,50.10
2019-04-14T18:50:47.719Z,51.47
2019-04-14T18:53:21.570Z,43.87
2019-04-14T18:56:01.896Z,72.47
2019-04-14T18:58:43.488Z,47.17
2019-04-14T19:01:15.359Z,52.77
2019-04-14T19:03:43.991Z,53.70
2019-04-14T19:06:12.780Z,46.30
2019-04-14T19:08:40.905Z,49.70
2019-04-14T19:11:31.009Z,45.43
2019-04-14T19:14:00.171Z,52.10
2019-04-14T19:16:39.128Z,71.27
2019-04-14T19:19:02.389Z,50.33
2019-04-14T19:21:31.944Z,48.70
2019-04-14T19:24:00.787Z,48.97
2019-04-14T19:26:29.600Z,47.93
2019-04-14T19:28:58.628Z,49.80
2019-04-14T19:31:27.390Z,50.77
2019-04-14T19:33:56.021Z,47.33
2019-04-14T19:36:25.196Z,48.13
2019-04-14T19:38:54.454Z,47.97
2019-04-14T19:41:23.909Z,49.33
2019-04-14T19:43:52.425Z,48.10
2019-04-14T19:46:20.801Z,53.30
2019-04-14T19:48:50.966Z,47.97
2019-04-14T19:51:19.971Z,55.63
2019-04-14T19:53:47.924Z,53.40
2019-04-14T19:56:16.754Z,55.00
2019-04-14T19:58:44.704Z,52.83
2019-04-14T20:01:12.893Z,49.63
2019-04-14T20:03:41.689Z,48.33
2019-04-14T20:06:10.694Z,48.20
2019-04-14T20:08:40.216Z,47.90
2019-04-14T20:11:09.207Z,50.23
2019-04-14T20:13:41.249Z,58.00
2019-04-14T20:16:27.827Z,58.17
2019-04-14T20:19:18.557Z,54.70
2019-04-14T20:22:06.585Z,52.33
2019-04-14T20:24:39.469Z,46.83
2019-04-14T20:27:26.990Z,51.40
2019-04-14T20:29:58.694Z,51.10
2019-04-14T20:32:29.846Z,53.97
2019-04-14T20:34:58.812Z,54.60
2019-04-14T20:37:27.079Z,55.17
2019-04-14T20:39:55.364Z,51.97
2019-04-14T20:42:23.851Z,50.57
2019-04-14T20:44:52.723Z,51.73
2019-04-14T20:47:21.960Z,48.90
2019-04-14T20:49:51.191Z,54.97
2019-04-14T20:52:20.771Z,60.83
2019-04-14T20:54:49.343Z,56.37
2019-04-14T20:57:18.053Z,59.67
2019-04-14T20:59:46.420Z,47.63
2019-04-14T21:02:52.057Z,44.43
2019-04-14T21:05:55.145Z,44.57
2019-04-14T21:08:41.010Z,52.13
2019-04-14T21:11:14.898Z,53.53
2019-04-14T21:13:57.101Z,51.07
2019-04-14T21:16:43.010Z,52.53
2019-04-14T21:19:21.042Z,53.93
2019-04-14T21:21:59.495Z,52.93
2019-04-14T21:24:53.867Z,54.57
2019-04-14T21:27:57.396Z,52.57
2019-04-14T21:30:32.022Z,50.60
2019-04-14T21:33:14.220Z,47.70
2019-04-14T21:36:00.582Z,52.40
2019-04-14T21:38:47.769Z,47.70
2019-04-14T21:41:19.526Z,45.77
2019-04-14T21:43:47.745Z,48.73
2019-04-14T21:46:15.650Z,54.80
2019-04-14T21:48:44.059Z,51.17
2019-04-14T21:51:12.832Z,50.20
2019-04-14T21:53:41.887Z,50.47
2019-04-14T21:56:13.869Z,49.57
2019-04-14T21:59:07.811Z,40.30
2019-04-14T22:01:58.050Z,47.50
2019-04-14T22:04:48.627Z,44.07
2019-04-14T22:07:25.619Z,46.63
2019-04-14T22:09:56.786Z,44.97
2019-04-14T22:12:24.829Z,44.67
2019-04-14T22:14:54.495Z,42.13
2019-04-14T22:17:22.822Z,41.93
2019-04-14T22:19:51.219Z,47.90
2019-04-14T22:22:19.799Z,44.70
2019-04-14T22:24:47.322Z,42.87
2019-04-14T22:27:15.767Z,42.60
2019-04-14T22:29:43.947Z,42.50
2019-04-14T22:32:13.641Z,44.73
2019-04-14T22:34:42.356Z,42.13
2019-04-14T22:37:10.580Z,42.70
2019-04-14T22:39:39.487Z,44.57
2019-04-14T22:42:07.474Z,39.93
2019-04-14T22:44:35.667Z,49.43
2019-04-14T22:47:04.303Z,46.60
2019-04-14T22:49:32.947Z,42.73
2019-04-14T22:52:01.180Z,43.97
2019-04-14T22:54:29.148Z,41.30
2019-04-14T22:56:57.250Z,45.30
2019-04-14T22:59:25.202Z,40.83
2019-04-14T23:02:00.476Z,45.53
2019-04-14T23:04:41.372Z,43.27
2019-04-14T23:07:24.062Z,48.23
2019-04-14T23:09:56.758Z,53.07
2019-04-14T23:12:48.281Z,48.30
2019-04-14T23:15:36.106Z,40.10
2019-04-14T23:18:26.741Z,40.03
2019-04-14T23:21:02.358Z,45.57
2019-04-14T23:23:50.279Z,47.33
2019-04-14T23:26:18.236Z,41.27
2019-04-14T23:28:46.529Z,43.53
2019-04-14T23:31:14.728Z,44.30
2019-04-14T23:33:42.593Z,38.13
2019-04-14T23:36:11.106Z,41.07
2019-04-14T23:38:39.354Z,42.27
2019-04-14T23:41:07.630Z,42.63
2019-04-14T23:43:35.617Z,39.47
2019-04-14T23:46:04.302Z,35.63
2019-04-14T23:48:32.254Z,36.50
2019-04-14T23:51:00.922Z,40.90
2019-04-14T23:53:29.227Z,39.20
2019-04-14T23:55:56.715Z,40.73
2019-04-14T23:58:25.272Z,42.07
